sensor_id;sensor_type;location;lat;lon;timestamp;temperature;humidity
1205;DHT22;592;48.764;9.174;2022-08-07T00:01:11;16.80;82.70
1205;DHT22;592;48.764;9.174;2022-08-07T00:03:38;16.80;82.30
1205;DHT22;592;48.764;9.174;2022-08-07T00:06:05;16.80;82.20
1205;DHT22;592;48.764;9.174;2022-08-07T00:08:32;16.80;83.20
1205;DHT22;592;48.764;9.174;2022-08-07T00:11:03;16.60;83.50
1205;DHT22;592;48.764;9.174;2022-08-07T00:13:30;16.60;83.30
1205;DHT22;592;48.764;9.174;2022-08-07T00:15:57;16.70;83.50
1205;DHT22;592;48.764;9.174;2022-08-07T00:18:27;16.70;83.40
1205;DHT22;592;48.764;9.174;2022-08-07T00:20:55;16.60;83.80
1205;DHT22;592;48.764;9.174;2022-08-07T00:23:22;16.60;84.60
1205;DHT22;592;48.764;9.174;2022-08-07T00:25:49;16.60;84.30
1205;DHT22;592;48.764;9.174;2022-08-07T00:28:17;16.50;84.50
1205;DHT22;592;48.764;9.174;2022-08-07T00:30:44;16.50;85.20
1205;DHT22;592;48.764;9.174;2022-08-07T00:33:11;16.40;85.80
1205;DHT22;592;48.764;9.174;2022-08-07T00:35:37;16.30;85.10
1205;DHT22;592;48.764;9.174;2022-08-07T00:38:04;16.40;85.10
1205;DHT22;592;48.764;9.174;2022-08-07T00:40:31;16.40;85.10
1205;DHT22;592;48.764;9.174;2022-08-07T00:42:58;16.30;86.40
1205;DHT22;592;48.764;9.174;2022-08-07T00:45:26;16.40;86.40
1205;DHT22;592;48.764;9.174;2022-08-07T00:47:53;16.20;87.40
1205;DHT22;592;48.764;9.174;2022-08-07T00:50:20;16.10;87.10
1205;DHT22;592;48.764;9.174;2022-08-07T00:52:47;16.00;87.50
1205;DHT22;592;48.764;9.174;2022-08-07T00:55:13;16.20;87.40
1205;DHT22;592;48.764;9.174;2022-08-07T00:57:40;16.10;87.20
1205;DHT22;592;48.764;9.174;2022-08-07T01:00:08;16.10;86.80
1205;DHT22;592;48.764;9.174;2022-08-07T01:02:36;16.10;87.50
1205;DHT22;592;48.764;9.174;2022-08-07T01:05:04;16.10;87.30
1205;DHT22;592;48.764;9.174;2022-08-07T01:07:32;16.10;87.40
1205;DHT22;592;48.764;9.174;2022-08-07T01:09:59;16.00;88.40
1205;DHT22;592;48.764;9.174;2022-08-07T01:12:26;15.90;88.00
1205;DHT22;592;48.764;9.174;2022-08-07T01:14:54;16.00;87.90
1205;DHT22;592;48.764;9.174;2022-08-07T01:17:22;16.00;87.90
1205;DHT22;592;48.764;9.174;2022-08-07T01:19:51;16.00;88.30
1205;DHT22;592;48.764;9.174;2022-08-07T01:22:21;15.90;88.50
1205;DHT22;592;48.764;9.174;2022-08-07T01:24:48;16.00;88.30
1205;DHT22;592;48.764;9.174;2022-08-07T01:30:37;15.90;88.70
1205;DHT22;592;48.764;9.174;2022-08-07T01:33:05;15.80;89.40
1205;DHT22;592;48.764;9.174;2022-08-07T01:35:32;15.50;89.70
1205;DHT22;592;48.764;9.174;2022-08-07T01:38:00;15.70;89.20
1205;DHT22;592;48.764;9.174;2022-08-07T01:40:27;15.70;88.70
1205;DHT22;592;48.764;9.174;2022-08-07T01:42:55;15.70;88.90
1205;DHT22;592;48.764;9.174;2022-08-07T01:45:22;15.70;90.10
1205;DHT22;592;48.764;9.174;2022-08-07T01:47:49;15.70;89.90
1205;DHT22;592;48.764;9.174;2022-08-07T01:50:15;15.30;90.50
1205;DHT22;592;48.764;9.174;2022-08-07T01:52:44;15.40;90.60
1205;DHT22;592;48.764;9.174;2022-08-07T01:55:14;15.50;90.20
1205;DHT22;592;48.764;9.174;2022-08-07T01:57:42;15.50;89.80
1205;DHT22;592;48.764;9.174;2022-08-07T02:00:12;15.60;90.10
1205;DHT22;592;48.764;9.174;2022-08-07T02:02:42;15.50;90.40
1205;DHT22;592;48.764;9.174;2022-08-07T02:05:13;15.30;90.70
1205;DHT22;592;48.764;9.174;2022-08-07T02:07:49;15.30;90.70
1205;DHT22;592;48.764;9.174;2022-08-07T02:10:23;15.40;90.60
1205;DHT22;592;48.764;9.174;2022-08-07T02:12:52;15.40;90.80
1205;DHT22;592;48.764;9.174;2022-08-07T02:15:22;15.20;91.30
1205;DHT22;592;48.764;9.174;2022-08-07T02:17:50;15.00;91.60
1205;DHT22;592;48.764;9.174;2022-08-07T02:20:20;15.10;91.60
1205;DHT22;592;48.764;9.174;2022-08-07T02:22:49;15.20;91.00
1205;DHT22;592;48.764;9.174;2022-08-07T02:25:19;15.20;90.90
1205;DHT22;592;48.764;9.174;2022-08-07T02:27:47;15.20;91.20
1205;DHT22;592;48.764;9.174;2022-08-07T02:30:15;15.20;91.80
1205;DHT22;592;48.764;9.174;2022-08-07T02:32:41;14.90;92.30
1205;DHT22;592;48.764;9.174;2022-08-07T02:35:10;14.90;92.20
1205;DHT22;592;48.764;9.174;2022-08-07T02:37:39;14.90;92.20
1205;DHT22;592;48.764;9.174;2022-08-07T02:40:07;14.80;92.50
1205;DHT22;592;48.764;9.174;2022-08-07T02:42:36;14.90;92.30
1205;DHT22;592;48.764;9.174;2022-08-07T02:45:04;15.00;92.30
1205;DHT22;592;48.764;9.174;2022-08-07T02:47:32;15.00;92.30
1205;DHT22;592;48.764;9.174;2022-08-07T02:49:59;15.00;92.50
1205;DHT22;592;48.764;9.174;2022-08-07T02:52:31;14.80;92.80
1205;DHT22;592;48.764;9.174;2022-08-07T02:55:00;14.70;92.90
1205;DHT22;592;48.764;9.174;2022-08-07T02:57:28;14.80;93.00
1205;DHT22;592;48.764;9.174;2022-08-07T02:59:57;14.80;93.00
1205;DHT22;592;48.764;9.174;2022-08-07T03:02:25;14.80;93.30
1205;DHT22;592;48.764;9.174;2022-08-07T03:04:52;14.80;93.20
1205;DHT22;592;48.764;9.174;2022-08-07T03:09:48;14.90;92.80
1205;DHT22;592;48.764;9.174;2022-08-07T03:12:15;14.80;93.40
1205;DHT22;592;48.764;9.174;2022-08-07T03:14:43;14.70;93.70
1205;DHT22;592;48.764;9.174;2022-08-07T03:17:11;14.70;94.00
1205;DHT22;592;48.764;9.174;2022-08-07T03:19:39;14.40;94.20
1205;DHT22;592;48.764;9.174;2022-08-07T03:22:07;14.60;94.30
1205;DHT22;592;48.764;9.174;2022-08-07T03:24:35;14.60;94.30
1205;DHT22;592;48.764;9.174;2022-08-07T03:27:03;14.60;94.20
1205;DHT22;592;48.764;9.174;2022-08-07T03:29:33;14.60;94.20
1205;DHT22;592;48.764;9.174;2022-08-07T03:32:02;14.60;94.10
1205;DHT22;592;48.764;9.174;2022-08-07T03:34:32;14.70;94.00
1205;DHT22;592;48.764;9.174;2022-08-07T03:37:00;14.70;94.10
1205;DHT22;592;48.764;9.174;2022-08-07T03:39:28;14.60;94.40
1205;DHT22;592;48.764;9.174;2022-08-07T03:41:57;14.40;94.90
1205;DHT22;592;48.764;9.174;2022-08-07T03:44:24;14.50;94.50
1205;DHT22;592;48.764;9.174;2022-08-07T03:46:50;14.50;94.70
1205;DHT22;592;48.764;9.174;2022-08-07T03:49:17;14.50;94.50
1205;DHT22;592;48.764;9.174;2022-08-07T03:51:46;14.60;94.70
1205;DHT22;592;48.764;9.174;2022-08-07T03:54:13;14.60;94.70
1205;DHT22;592;48.764;9.174;2022-08-07T03:56:40;14.60;94.80
1205;DHT22;592;48.764;9.174;2022-08-07T03:59:11;14.50;95.10
1205;DHT22;592;48.764;9.174;2022-08-07T04:01:40;14.40;95.40
1205;DHT22;592;48.764;9.174;2022-08-07T04:04:07;14.50;95.10
1205;DHT22;592;48.764;9.174;2022-08-07T04:06:35;14.50;95.00
1205;DHT22;592;48.764;9.174;2022-08-07T04:09:04;14.60;94.90
1205;DHT22;592;48.764;9.174;2022-08-07T04:11:30;14.60;95.30
1205;DHT22;592;48.764;9.174;2022-08-07T04:13:59;14.40;95.70
1205;DHT22;592;48.764;9.174;2022-08-07T04:16:27;14.40;95.70
1205;DHT22;592;48.764;9.174;2022-08-07T04:18:54;14.40;95.90
1205;DHT22;592;48.764;9.174;2022-08-07T04:21:20;14.50;96.00
1205;DHT22;592;48.764;9.174;2022-08-07T04:23:47;14.50;96.20
1205;DHT22;592;48.764;9.174;2022-08-07T04:26:16;14.40;96.80
1205;DHT22;592;48.764;9.174;2022-08-07T04:28:43;14.30;97.00
1205;DHT22;592;48.764;9.174;2022-08-07T04:31:10;14.40;97.10
1205;DHT22;592;48.764;9.174;2022-08-07T04:33:37;14.50;97.00
1205;DHT22;592;48.764;9.174;2022-08-07T04:36:08;14.70;96.80
1205;DHT22;592;48.764;9.174;2022-08-07T04:38:35;14.70;97.10
1205;DHT22;592;48.764;9.174;2022-08-07T04:41:02;14.80;96.80
1205;DHT22;592;48.764;9.174;2022-08-07T04:43:33;14.90;96.80
1205;DHT22;592;48.764;9.174;2022-08-07T04:46:06;15.00;96.80
1205;DHT22;592;48.764;9.174;2022-08-07T04:48:40;15.00;96.80
1205;DHT22;592;48.764;9.174;2022-08-07T04:51:18;14.90;97.10
1205;DHT22;592;48.764;9.174;2022-08-07T04:53:51;15.00;97.00
1205;DHT22;592;48.764;9.174;2022-08-07T04:56:23;15.20;96.60
1205;DHT22;592;48.764;9.174;2022-08-07T04:58:57;15.40;96.70
1205;DHT22;592;48.764;9.174;2022-08-07T05:01:34;15.60;96.30
1205;DHT22;592;48.764;9.174;2022-08-07T05:04:08;15.50;96.30
1205;DHT22;592;48.764;9.174;2022-08-07T05:06:41;15.70;95.80
1205;DHT22;592;48.764;9.174;2022-08-07T05:09:15;15.70;95.80
1205;DHT22;592;48.764;9.174;2022-08-07T05:11:48;15.90;95.70
1205;DHT22;592;48.764;9.174;2022-08-07T05:14:18;16.00;95.60
1205;DHT22;592;48.764;9.174;2022-08-07T05:16:46;16.20;95.50
1205;DHT22;592;48.764;9.174;2022-08-07T05:19:16;16.40;95.60
1205;DHT22;592;48.764;9.174;2022-08-07T05:21:50;16.40;95.30
1205;DHT22;592;48.764;9.174;2022-08-07T05:24:20;16.40;95.10
1205;DHT22;592;48.764;9.174;2022-08-07T05:26:49;16.50;95.00
1205;DHT22;592;48.764;9.174;2022-08-07T05:29:19;16.70;95.00
1205;DHT22;592;48.764;9.174;2022-08-07T05:31:49;16.80;94.70
1205;DHT22;592;48.764;9.174;2022-08-07T05:34:16;17.00;94.60
1205;DHT22;592;48.764;9.174;2022-08-07T05:36:46;17.10;94.50
1205;DHT22;592;48.764;9.174;2022-08-07T05:39:14;17.20;94.30
1205;DHT22;592;48.764;9.174;2022-08-07T05:41:42;17.30;94.20
1205;DHT22;592;48.764;9.174;2022-08-07T05:44:12;17.30;93.90
1205;DHT22;592;48.764;9.174;2022-08-07T05:46:40;17.50;93.60
1205;DHT22;592;48.764;9.174;2022-08-07T05:49:09;17.60;94.10
1205;DHT22;592;48.764;9.174;2022-08-07T05:51:36;17.80;93.90
1205;DHT22;592;48.764;9.174;2022-08-07T05:54:04;18.00;93.80
1205;DHT22;592;48.764;9.174;2022-08-07T05:56:32;18.20;93.80
1205;DHT22;592;48.764;9.174;2022-08-07T05:59:01;18.20;93.80
1205;DHT22;592;48.764;9.174;2022-08-07T06:01:28;18.30;93.30
1205;DHT22;592;48.764;9.174;2022-08-07T06:03:58;18.40;93.40
1205;DHT22;592;48.764;9.174;2022-08-07T06:06:25;18.50;93.30
1205;DHT22;592;48.764;9.174;2022-08-07T06:08:53;18.60;93.10
1205;DHT22;592;48.764;9.174;2022-08-07T06:11:20;18.70;92.90
1205;DHT22;592;48.764;9.174;2022-08-07T06:13:47;18.80;93.20
1205;DHT22;592;48.764;9.174;2022-08-07T06:16:14;18.80;93.40
1205;DHT22;592;48.764;9.174;2022-08-07T06:18:42;19.00;93.30
1205;DHT22;592;48.764;9.174;2022-08-07T06:21:11;18.70;93.40
1205;DHT22;592;48.764;9.174;2022-08-07T06:23:39;18.70;93.60
1205;DHT22;592;48.764;9.174;2022-08-07T06:26:05;18.70;93.80
1205;DHT22;592;48.764;9.174;2022-08-07T06:28:32;18.80;93.50
1205;DHT22;592;48.764;9.174;2022-08-07T06:30:59;18.90;93.90
1205;DHT22;592;48.764;9.174;2022-08-07T06:33:26;19.10;93.90
1205;DHT22;592;48.764;9.174;2022-08-07T06:35:53;19.10;94.00
1205;DHT22;592;48.764;9.174;2022-08-07T06:38:21;19.20;94.60
1205;DHT22;592;48.764;9.174;2022-08-07T06:40:50;19.40;94.30
1205;DHT22;592;48.764;9.174;2022-08-07T06:43:20;19.40;94.40
1205;DHT22;592;48.764;9.174;2022-08-07T06:45:49;19.50;94.60
1205;DHT22;592;48.764;9.174;2022-08-07T06:48:16;19.60;94.80
1205;DHT22;592;48.764;9.174;2022-08-07T06:50:43;19.60;95.00
1205;DHT22;592;48.764;9.174;2022-08-07T06:53:12;19.60;95.20
1205;DHT22;592;48.764;9.174;2022-08-07T06:55:41;19.80;95.10
1205;DHT22;592;48.764;9.174;2022-08-07T06:58:10;19.90;95.20
1205;DHT22;592;48.764;9.174;2022-08-07T07:00:39;19.90;95.50
1205;DHT22;592;48.764;9.174;2022-08-07T07:03:07;19.90;95.50
1205;DHT22;592;48.764;9.174;2022-08-07T07:05:34;19.80;95.50
1205;DHT22;592;48.764;9.174;2022-08-07T07:08:01;20.00;95.50
1205;DHT22;592;48.764;9.174;2022-08-07T07:10:30;19.90;95.70
1205;DHT22;592;48.764;9.174;2022-08-07T07:13:02;19.90;95.80
1205;DHT22;592;48.764;9.174;2022-08-07T07:15:34;20.00;95.80
1205;DHT22;592;48.764;9.174;2022-08-07T07:18:06;20.20;95.80
1205;DHT22;592;48.764;9.174;2022-08-07T07:20:37;20.20;95.60
1205;DHT22;592;48.764;9.174;2022-08-07T07:23:05;20.20;95.80
1205;DHT22;592;48.764;9.174;2022-08-07T07:25:34;20.20;96.10
1205;DHT22;592;48.764;9.174;2022-08-07T07:28:12;20.20;96.10
1205;DHT22;592;48.764;9.174;2022-08-07T07:30:42;20.50;96.10
1205;DHT22;592;48.764;9.174;2022-08-07T07:33:12;20.50;96.10
1205;DHT22;592;48.764;9.174;2022-08-07T07:35:42;20.80;95.90
1205;DHT22;592;48.764;9.174;2022-08-07T07:38:11;20.70;95.60
1205;DHT22;592;48.764;9.174;2022-08-07T07:40:39;20.90;95.90
1205;DHT22;592;48.764;9.174;2022-08-07T07:43:09;21.10;95.80
1205;DHT22;592;48.764;9.174;2022-08-07T07:45:36;21.20;95.00
1205;DHT22;592;48.764;9.174;2022-08-07T07:48:06;21.30;94.80
1205;DHT22;592;48.764;9.174;2022-08-07T07:50:35;21.20;94.20
1205;DHT22;592;48.764;9.174;2022-08-07T07:53:03;21.30;94.50
1205;DHT22;592;48.764;9.174;2022-08-07T07:55:31;21.40;94.20
1205;DHT22;592;48.764;9.174;2022-08-07T07:57:58;21.40;93.70
1205;DHT22;592;48.764;9.174;2022-08-07T08:00:27;21.50;93.90
1205;DHT22;592;48.764;9.174;2022-08-07T08:02:58;21.80;93.60
1205;DHT22;592;48.764;9.174;2022-08-07T08:05:24;21.60;91.60
1205;DHT22;592;48.764;9.174;2022-08-07T08:07:52;21.50;91.20
1205;DHT22;592;48.764;9.174;2022-08-07T08:10:19;21.70;91.20
1205;DHT22;592;48.764;9.174;2022-08-07T08:12:47;21.60;90.80
1205;DHT22;592;48.764;9.174;2022-08-07T08:15:14;21.90;91.00
1205;DHT22;592;48.764;9.174;2022-08-07T08:17:44;22.00;90.50
1205;DHT22;592;48.764;9.174;2022-08-07T08:20:14;21.90;88.40
1205;DHT22;592;48.764;9.174;2022-08-07T08:22:43;21.90;87.60
1205;DHT22;592;48.764;9.174;2022-08-07T08:25:32;21.60;87.50
1205;DHT22;592;48.764;9.174;2022-08-07T08:28:20;21.90;89.20
1205;DHT22;592;48.764;9.174;2022-08-07T08:30:48;21.90;86.10
1205;DHT22;592;48.764;9.174;2022-08-07T08:33:19;21.80;86.30
1205;DHT22;592;48.764;9.174;2022-08-07T08:35:47;21.90;86.90
1205;DHT22;592;48.764;9.174;2022-08-07T08:38:16;22.00;87.20
1205;DHT22;592;48.764;9.174;2022-08-07T08:40:47;22.30;87.10
1205;DHT22;592;48.764;9.174;2022-08-07T08:43:19;22.40;85.70
1205;DHT22;592;48.764;9.174;2022-08-07T08:45:52;22.40;84.40
1205;DHT22;592;48.764;9.174;2022-08-07T08:48:29;22.30;83.50
1205;DHT22;592;48.764;9.174;2022-08-07T08:51:00;22.50;84.30
1205;DHT22;592;48.764;9.174;2022-08-07T08:53:32;22.60;85.10
1205;DHT22;592;48.764;9.174;2022-08-07T08:56:03;22.70;81.60
1205;DHT22;592;48.764;9.174;2022-08-07T08:58:35;22.50;81.30
1205;DHT22;592;48.764;9.174;2022-08-07T09:01:08;22.20;81.00
1205;DHT22;592;48.764;9.174;2022-08-07T09:03:47;22.40;82.00
1205;DHT22;592;48.764;9.174;2022-08-07T09:06:20;22.60;81.00
1205;DHT22;592;48.764;9.174;2022-08-07T09:09:05;22.70;79.80
1205;DHT22;592;48.764;9.174;2022-08-07T09:11:39;22.70;78.80
1205;DHT22;592;48.764;9.174;2022-08-07T09:14:11;22.60;77.50
1205;DHT22;592;48.764;9.174;2022-08-07T09:16:47;22.70;77.90
1205;DHT22;592;48.764;9.174;2022-08-07T09:19:22;22.70;76.30
1205;DHT22;592;48.764;9.174;2022-08-07T09:21:58;22.70;75.10
1205;DHT22;592;48.764;9.174;2022-08-07T09:24:40;22.80;75.50
1205;DHT22;592;48.764;9.174;2022-08-07T09:27:18;22.80;74.80
1205;DHT22;592;48.764;9.174;2022-08-07T09:29:55;22.90;74.90
1205;DHT22;592;48.764;9.174;2022-08-07T09:32:31;23.00;74.50
1205;DHT22;592;48.764;9.174;2022-08-07T09:35:13;22.90;73.80
1205;DHT22;592;48.764;9.174;2022-08-07T09:37:44;22.60;73.90
1205;DHT22;592;48.764;9.174;2022-08-07T09:40:18;22.50;73.10
1205;DHT22;592;48.764;9.174;2022-08-07T09:42:53;22.50;74.60
1205;DHT22;592;48.764;9.174;2022-08-07T09:45:33;22.40;74.30
1205;DHT22;592;48.764;9.174;2022-08-07T09:48:10;22.60;75.70
1205;DHT22;592;48.764;9.174;2022-08-07T09:50:49;22.70;73.20
1205;DHT22;592;48.764;9.174;2022-08-07T09:53:20;22.60;71.70
1205;DHT22;592;48.764;9.174;2022-08-07T09:56:00;22.60;70.80
1205;DHT22;592;48.764;9.174;2022-08-07T09:58:56;22.60;70.90
1205;DHT22;592;48.764;9.174;2022-08-07T10:01:49;22.60;70.80
1205;DHT22;592;48.764;9.174;2022-08-07T10:04:30;22.60;71.60
1205;DHT22;592;48.764;9.174;2022-08-07T10:07:12;22.40;70.10
1205;DHT22;592;48.764;9.174;2022-08-07T10:12:51;22.60;69.80
1205;DHT22;592;48.764;9.174;2022-08-07T10:15:48;22.40;68.50
1205;DHT22;592;48.764;9.174;2022-08-07T10:18:27;22.40;68.70
1205;DHT22;592;48.764;9.174;2022-08-07T10:21:07;22.50;68.00
1205;DHT22;592;48.764;9.174;2022-08-07T10:23:48;22.50;66.70
1205;DHT22;592;48.764;9.174;2022-08-07T10:26:30;22.40;66.50
1205;DHT22;592;48.764;9.174;2022-08-07T10:29:10;22.60;68.90
1205;DHT22;592;48.764;9.174;2022-08-07T10:31:52;22.60;67.40
1205;DHT22;592;48.764;9.174;2022-08-07T10:34:32;22.70;69.70
1205;DHT22;592;48.764;9.174;2022-08-07T10:37:17;22.80;67.50
1205;DHT22;592;48.764;9.174;2022-08-07T10:39:55;22.70;67.80
1205;DHT22;592;48.764;9.174;2022-08-07T10:42:34;22.90;68.50
1205;DHT22;592;48.764;9.174;2022-08-07T10:45:10;22.90;66.20
1205;DHT22;592;48.764;9.174;2022-08-07T10:47:46;23.00;67.40
1205;DHT22;592;48.764;9.174;2022-08-07T10:50:21;23.00;66.40
1205;DHT22;592;48.764;9.174;2022-08-07T10:52:54;23.00;65.20
1205;DHT22;592;48.764;9.174;2022-08-07T10:55:30;23.00;65.80
1205;DHT22;592;48.764;9.174;2022-08-07T10:58:08;22.90;66.60
1205;DHT22;592;48.764;9.174;2022-08-07T11:00:47;22.90;67.00
1205;DHT22;592;48.764;9.174;2022-08-07T11:03:23;23.10;67.30
1205;DHT22;592;48.764;9.174;2022-08-07T11:05:55;23.20;68.10
1205;DHT22;592;48.764;9.174;2022-08-07T11:08:28;23.30;66.20
1205;DHT22;592;48.764;9.174;2022-08-07T11:11:04;23.30;66.50
1205;DHT22;592;48.764;9.174;2022-08-07T11:13:36;23.40;67.30
1205;DHT22;592;48.764;9.174;2022-08-07T11:16:09;23.40;67.00
1205;DHT22;592;48.764;9.174;2022-08-07T11:18:41;23.50;66.70
1205;DHT22;592;48.764;9.174;2022-08-07T11:21:23;23.30;67.50
1205;DHT22;592;48.764;9.174;2022-08-07T11:23:58;23.50;68.20
1205;DHT22;592;48.764;9.174;2022-08-07T11:26:32;23.60;67.50
1205;DHT22;592;48.764;9.174;2022-08-07T11:29:04;23.50;66.70
1205;DHT22;592;48.764;9.174;2022-08-07T11:31:37;23.50;66.00
1205;DHT22;592;48.764;9.174;2022-08-07T11:34:15;23.60;67.20
1205;DHT22;592;48.764;9.174;2022-08-07T11:36:53;23.70;68.40
1205;DHT22;592;48.764;9.174;2022-08-07T11:39:31;23.80;67.30
1205;DHT22;592;48.764;9.174;2022-08-07T11:42:12;23.90;68.00
1205;DHT22;592;48.764;9.174;2022-08-07T11:44:48;23.90;65.90
1205;DHT22;592;48.764;9.174;2022-08-07T11:47:24;23.90;65.60
1205;DHT22;592;48.764;9.174;2022-08-07T11:50:14;23.90;65.80
1205;DHT22;592;48.764;9.174;2022-08-07T11:52:51;24.00;66.00
1205;DHT22;592;48.764;9.174;2022-08-07T11:55:28;23.90;65.90
1205;DHT22;592;48.764;9.174;2022-08-07T11:58:07;23.90;65.30
1205;DHT22;592;48.764;9.174;2022-08-07T12:00:44;23.90;66.30
1205;DHT22;592;48.764;9.174;2022-08-07T12:03:47;23.90;66.20
1205;DHT22;592;48.764;9.174;2022-08-07T12:06:29;24.30;66.10
1205;DHT22;592;48.764;9.174;2022-08-07T12:09:02;24.20;65.30
1205;DHT22;592;48.764;9.174;2022-08-07T12:11:37;24.20;65.10
1205;DHT22;592;48.764;9.174;2022-08-07T12:14:09;24.20;66.00
1205;DHT22;592;48.764;9.174;2022-08-07T12:16:43;24.30;65.90
1205;DHT22;592;48.764;9.174;2022-08-07T12:19:18;24.50;66.20
1205;DHT22;592;48.764;9.174;2022-08-07T12:21:51;24.50;64.70
1205;DHT22;592;48.764;9.174;2022-08-07T12:24:26;24.40;64.00
1205;DHT22;592;48.764;9.174;2022-08-07T12:26:58;24.40;64.10
1205;DHT22;592;48.764;9.174;2022-08-07T12:29:32;24.60;64.90
1205;DHT22;592;48.764;9.174;2022-08-07T12:32:06;24.70;64.30
1205;DHT22;592;48.764;9.174;2022-08-07T12:34:37;24.70;64.90
1205;DHT22;592;48.764;9.174;2022-08-07T12:37:04;24.80;63.60
1205;DHT22;592;48.764;9.174;2022-08-07T12:39:33;24.70;62.70
1205;DHT22;592;48.764;9.174;2022-08-07T12:42:02;24.70;62.40
1205;DHT22;592;48.764;9.174;2022-08-07T12:44:33;24.80;63.50
1205;DHT22;592;48.764;9.174;2022-08-07T12:47:09;24.90;62.30
1205;DHT22;592;48.764;9.174;2022-08-07T12:49:46;25.00;63.10
1205;DHT22;592;48.764;9.174;2022-08-07T12:52:18;25.10;62.10
1205;DHT22;592;48.764;9.174;2022-08-07T12:54:54;24.90;61.90
1205;DHT22;592;48.764;9.174;2022-08-07T12:57:27;25.10;63.20
1205;DHT22;592;48.764;9.174;2022-08-07T12:59:58;25.10;62.10
1205;DHT22;592;48.764;9.174;2022-08-07T13:02:45;25.20;62.00
1205;DHT22;592;48.764;9.174;2022-08-07T13:05:22;25.30;61.70
1205;DHT22;592;48.764;9.174;2022-08-07T13:08:13;25.30;61.60
1205;DHT22;592;48.764;9.174;2022-08-07T13:10:50;25.30;61.20
1205;DHT22;592;48.764;9.174;2022-08-07T13:13:33;25.30;61.00
1205;DHT22;592;48.764;9.174;2022-08-07T13:16:10;25.30;61.10
1205;DHT22;592;48.764;9.174;2022-08-07T13:18:47;25.30;60.80
1205;DHT22;592;48.764;9.174;2022-08-07T13:21:18;25.30;60.90
1205;DHT22;592;48.764;9.174;2022-08-07T13:23:51;25.40;61.90
1205;DHT22;592;48.764;9.174;2022-08-07T13:26:25;25.80;61.40
1205;DHT22;592;48.764;9.174;2022-08-07T13:29:00;25.90;60.40
1205;DHT22;592;48.764;9.174;2022-08-07T13:31:34;26.10;60.60
1205;DHT22;592;48.764;9.174;2022-08-07T13:34:05;26.40;59.90
1205;DHT22;592;48.764;9.174;2022-08-07T13:36:41;26.60;59.90
1205;DHT22;592;48.764;9.174;2022-08-07T13:39:14;27.40;60.00
1205;DHT22;592;48.764;9.174;2022-08-07T13:41:46;27.80;59.30
1205;DHT22;592;48.764;9.174;2022-08-07T13:44:18;28.40;57.50
1205;DHT22;592;48.764;9.174;2022-08-07T13:46:50;28.90;59.40
1205;DHT22;592;48.764;9.174;2022-08-07T13:49:19;28.70;56.90
1205;DHT22;592;48.764;9.174;2022-08-07T13:51:48;28.90;55.80
1205;DHT22;592;48.764;9.174;2022-08-07T13:54:17;28.80;56.70
1205;DHT22;592;48.764;9.174;2022-08-07T13:56:45;28.50;55.60
1205;DHT22;592;48.764;9.174;2022-08-07T13:59:24;28.30;56.10
1205;DHT22;592;48.764;9.174;2022-08-07T14:01:55;28.40;56.20
1205;DHT22;592;48.764;9.174;2022-08-07T14:04:24;28.40;56.20
1205;DHT22;592;48.764;9.174;2022-08-07T14:06:52;28.60;57.00
1205;DHT22;592;48.764;9.174;2022-08-07T14:09:21;29.50;57.20
1205;DHT22;592;48.764;9.174;2022-08-07T14:11:51;30.80;56.10
1205;DHT22;592;48.764;9.174;2022-08-07T14:14:20;31.70;53.90
1205;DHT22;592;48.764;9.174;2022-08-07T14:16:53;30.90;53.00
1205;DHT22;592;48.764;9.174;2022-08-07T14:19:29;31.20;52.30
1205;DHT22;592;48.764;9.174;2022-08-07T14:22:01;31.00;52.20
1205;DHT22;592;48.764;9.174;2022-08-07T14:24:35;31.80;52.70
1205;DHT22;592;48.764;9.174;2022-08-07T14:27:05;32.40;51.10
1205;DHT22;592;48.764;9.174;2022-08-07T14:29:36;33.30;51.00
1205;DHT22;592;48.764;9.174;2022-08-07T14:32:08;35.40;49.70
1205;DHT22;592;48.764;9.174;2022-08-07T14:34:40;33.70;47.50
1205;DHT22;592;48.764;9.174;2022-08-07T14:37:08;33.40;48.50
1205;DHT22;592;48.764;9.174;2022-08-07T14:39:37;33.80;48.20
1205;DHT22;592;48.764;9.174;2022-08-07T14:42:08;34.50;48.30
1205;DHT22;592;48.764;9.174;2022-08-07T14:44:36;33.90;47.80
1205;DHT22;592;48.764;9.174;2022-08-07T14:47:04;34.50;47.70
1205;DHT22;592;48.764;9.174;2022-08-07T14:49:34;36.90;46.80
1205;DHT22;592;48.764;9.174;2022-08-07T14:52:03;38.10;45.20
1205;DHT22;592;48.764;9.174;2022-08-07T14:54:32;37.30;43.50
1205;DHT22;592;48.764;9.174;2022-08-07T14:57:00;36.00;45.30
1205;DHT22;592;48.764;9.174;2022-08-07T14:59:32;36.00;47.10
1205;DHT22;592;48.764;9.174;2022-08-07T15:02:09;38.00;44.40
1205;DHT22;592;48.764;9.174;2022-08-07T15:04:39;40.20;42.90
1205;DHT22;592;48.764;9.174;2022-08-07T15:07:08;38.30;42.10
1205;DHT22;592;48.764;9.174;2022-08-07T15:09:39;38.10;44.40
1205;DHT22;592;48.764;9.174;2022-08-07T15:12:09;39.70;43.80
1205;DHT22;592;48.764;9.174;2022-08-07T15:14:36;38.50;40.50
1205;DHT22;592;48.764;9.174;2022-08-07T15:17:13;36.60;42.60
1205;DHT22;592;48.764;9.174;2022-08-07T15:19:48;35.30;43.70
1205;DHT22;592;48.764;9.174;2022-08-07T15:22:16;36.70;44.10
1205;DHT22;592;48.764;9.174;2022-08-07T15:24:48;34.20;42.70
1205;DHT22;592;48.764;9.174;2022-08-07T15:27:19;32.10;45.90
1205;DHT22;592;48.764;9.174;2022-08-07T15:29:49;31.10;47.40
1205;DHT22;592;48.764;9.174;2022-08-07T15:32:17;30.40;48.10
1205;DHT22;592;48.764;9.174;2022-08-07T15:34:48;30.20;49.00
1205;DHT22;592;48.764;9.174;2022-08-07T15:37:19;30.10;48.40
1205;DHT22;592;48.764;9.174;2022-08-07T15:39:48;29.40;49.80
1205;DHT22;592;48.764;9.174;2022-08-07T15:42:45;28.60;50.30
1205;DHT22;592;48.764;9.174;2022-08-07T15:45:24;28.00;51.00
1205;DHT22;592;48.764;9.174;2022-08-07T15:47:54;27.80;51.70
1205;DHT22;592;48.764;9.174;2022-08-07T15:50:27;27.60;51.80
1205;DHT22;592;48.764;9.174;2022-08-07T15:52:59;27.30;52.00
1205;DHT22;592;48.764;9.174;2022-08-07T15:55:28;27.20;52.40
1205;DHT22;592;48.764;9.174;2022-08-07T15:57:57;27.20;52.70
1205;DHT22;592;48.764;9.174;2022-08-07T16:00:31;27.10;52.50
1205;DHT22;592;48.764;9.174;2022-08-07T16:03:06;27.10;53.30
1205;DHT22;592;48.764;9.174;2022-08-07T16:05:37;27.10;52.60
1205;DHT22;592;48.764;9.174;2022-08-07T16:08:10;26.90;52.50
1205;DHT22;592;48.764;9.174;2022-08-07T16:10:40;26.70;53.10
1205;DHT22;592;48.764;9.174;2022-08-07T16:13:35;26.70;53.50
1205;DHT22;592;48.764;9.174;2022-08-07T16:16:08;26.80;54.10
1205;DHT22;592;48.764;9.174;2022-08-07T16:18:43;26.80;54.60
1205;DHT22;592;48.764;9.174;2022-08-07T16:21:22;26.70;53.50
1205;DHT22;592;48.764;9.174;2022-08-07T16:23:57;26.60;54.50
1205;DHT22;592;48.764;9.174;2022-08-07T16:26:35;26.40;54.30
1205;DHT22;592;48.764;9.174;2022-08-07T16:29:11;26.50;54.40
1205;DHT22;592;48.764;9.174;2022-08-07T16:31:46;26.40;54.20
1205;DHT22;592;48.764;9.174;2022-08-07T16:34:23;26.40;54.30
1205;DHT22;592;48.764;9.174;2022-08-07T16:37:10;26.30;54.30
1205;DHT22;592;48.764;9.174;2022-08-07T16:40:06;26.20;54.50
1205;DHT22;592;48.764;9.174;2022-08-07T16:42:56;26.30;54.80
1205;DHT22;592;48.764;9.174;2022-08-07T16:45:52;26.10;54.60
1205;DHT22;592;48.764;9.174;2022-08-07T16:48:42;26.10;55.40
1205;DHT22;592;48.764;9.174;2022-08-07T16:51:21;26.10;55.30
1205;DHT22;592;48.764;9.174;2022-08-07T16:54:16;26.10;55.30
1205;DHT22;592;48.764;9.174;2022-08-07T16:56:54;26.10;55.80